PWSweather.com
Personal Weather Stations
Station Observations
ANTHEMNP
Anthem North Parkside, Anthem, AZ 85086

Anthem North ParksideAnthem, AZ 85086

Lat: 33.876464, Lon: -112.13861199999997

Elevation: 1930

Station Type: Davis Vantage Vue with Pro 2 console

http://www.azjerry.com/ANPW/wxindex.php

High Low Average
Temperature 109.4°F43.0°C 88.5°F31.4°C 97.7°F36.5°C
Dew Point 54.0°F12.2°C 41.0°F5.0°C 46.3°F7.9°C
Winds 11.6 mph 18.7 kmh Calm Calm 3.0 mph SE4.8 kmh SE
Wind Gusts 23.0 mph37.0 kmh -- 7.0 mph11.3 kmh
Humidity 25% 11% 18%
Pressure 29.84 in1010.5 mb 29.84 in1010.5 mb -
Precipitation 0.00 in0.0 mm - -
Hour Temp Dew Point Humidity Winds Wind Gusts Pressure Precip Precip Rate Daily Precip Total
12:00 AM 92.5°F33.6°C 42.0°F5.6°C 17% Calm Calm 1.0 mph1.6 kmh 29.84 in1010.5 mb 0.00 in0.0 mm 0.00 in0.0 mm 0.00 in0.0 mm
12:10 AM 92.1°F33.4°C 43.0°F6.1°C 18% Calm Calm 1.0 mph1.6 kmh 29.84 in1010.5 mb 0.00 in0.0 mm 0.00 in0.0 mm 0.00 in0.0 mm
12:20 AM 92.3°F33.5°C 43.0°F6.1°C 18% 0.8 mph NNE1.3 kmh NNE 2.0 mph3.2 kmh 29.84 in1010.5 mb 0.00 in0.0 mm 0.00 in0.0 mm 0.00 in0.0 mm
12:30 AM 92.7°F33.7°C 42.0°F5.6°C 17% 1.5 mph NNW2.4 kmh NNW 3.0 mph4.8 kmh 29.84 in1010.5 mb 0.00 in0.0 mm 0.00 in0.0 mm 0.00 in0.0 mm
12:40 AM 93.2°F34.0°C 42.0°F5.6°C 17% 2.4 mph NNE3.9 kmh NNE 6.0 mph9.7 kmh 29.84 in1010.5 mb 0.00 in0.0 mm 0.00 in0.0 mm 0.00 in0.0 mm
12:50 AM 93.4°F34.1°C 44.0°F6.7°C 18% 4.2 mph N6.8 kmh N 7.0 mph11.3 kmh 29.84 in1010.5 mb 0.00 in0.0 mm 0.00 in0.0 mm 0.00 in0.0 mm
01:00 AM 93.9°F34.4°C 43.0°F6.1°C 17% 3.7 mph NNE6.0 kmh NNE 7.0 mph11.3 kmh 29.84 in1010.5 mb 0.00 in0.0 mm 0.00 in0.0 mm 0.00 in0.0 mm
01:10 AM 94.1°F34.5°C 43.0°F6.1°C 17% 2.4 mph NNE3.9 kmh NNE 7.0 mph11.3 kmh 29.84 in1010.5 mb 0.00 in0.0 mm 0.00 in0.0 mm 0.00 in0.0 mm
01:20 AM 94.0°F34.4°C 43.0°F6.1°C 17% 2.6 mph N4.2 kmh N 9.0 mph14.5 kmh 29.84 in1010.5 mb 0.00 in0.0 mm 0.00 in0.0 mm 0.00 in0.0 mm
01:30 AM 94.0°F34.4°C 43.0°F6.1°C 17% 4.5 mph N7.2 kmh N 11.0 mph17.7 kmh 29.84 in1010.5 mb 0.00 in0.0 mm 0.00 in0.0 mm 0.00 in0.0 mm
01:40 AM 94.6°F34.8°C 43.0°F6.1°C 17% 6.1 mph N9.8 kmh N 13.0 mph20.9 kmh 29.84 in1010.5 mb 0.00 in0.0 mm 0.00 in0.0 mm 0.00 in0.0 mm
01:50 AM 93.6°F34.2°C 43.0°F6.1°C 17% 4.1 mph SSE6.6 kmh SSE 10.0 mph16.1 kmh 29.84 in1010.5 mb 0.00 in0.0 mm 0.00 in0.0 mm 0.00 in0.0 mm
02:00 AM 93.4°F34.1°C 42.0°F5.6°C 17% 1.9 mph SE3.1 kmh SE 8.0 mph12.9 kmh 29.84 in1010.5 mb 0.00 in0.0 mm 0.00 in0.0 mm 0.00 in0.0 mm
02:10 AM 92.7°F33.7°C 42.0°F5.6°C 17% 2.1 mph SE3.4 kmh SE 4.0 mph6.4 kmh 29.84 in1010.5 mb 0.00 in0.0 mm 0.00 in0.0 mm 0.00 in0.0 mm
02:20 AM 92.4°F33.6°C 42.0°F5.6°C 17% 1.3 mph E2.1 kmh E 5.0 mph8.0 kmh 29.84 in1010.5 mb 0.00 in0.0 mm 0.00 in0.0 mm 0.00 in0.0 mm
02:30 AM 92.3°F33.5°C 42.0°F5.6°C 17% 2.1 mph SE3.4 kmh SE 5.0 mph8.0 kmh 29.84 in1010.5 mb 0.00 in0.0 mm 0.00 in0.0 mm 0.00 in0.0 mm
02:40 AM 92.1°F33.4°C 41.0°F5.0°C 17% 1.0 mph NNW1.6 kmh NNW 3.0 mph4.8 kmh 29.84 in1010.5 mb 0.00 in0.0 mm 0.00 in0.0 mm 0.00 in0.0 mm
02:50 AM 92.2°F33.4°C 41.0°F5.0°C 17% 0.6 mph SE1.0 kmh SE 3.0 mph4.8 kmh 29.84 in1010.5 mb 0.00 in0.0 mm 0.00 in0.0 mm 0.00 in0.0 mm
03:00 AM 92.1°F33.4°C 41.0°F5.0°C 17% 1.4 mph SE2.3 kmh SE 3.0 mph4.8 kmh 29.84 in1010.5 mb 0.00 in0.0 mm 0.00 in0.0 mm 0.00 in0.0 mm
03:10 AM 92.1°F33.4°C 41.0°F5.0°C 17% Calm Calm 1.0 mph1.6 kmh 29.84 in1010.5 mb 0.00 in0.0 mm 0.00 in0.0 mm 0.00 in0.0 mm
03:20 AM 92.6°F33.7°C 42.0°F5.6°C 17% 0.5 mph SE0.8 kmh SE 2.0 mph3.2 kmh 29.84 in1010.5 mb 0.00 in0.0 mm 0.00 in0.0 mm 0.00 in0.0 mm
03:30 AM 92.8°F33.8°C 42.0°F5.6°C 17% 0.8 mph SSW1.3 kmh SSW 2.0 mph3.2 kmh 29.84 in1010.5 mb 0.00 in0.0 mm 0.00 in0.0 mm 0.00 in0.0 mm
03:40 AM 91.9°F33.3°C 43.0°F6.1°C 18% 1.6 mph SW2.6 kmh SW 4.0 mph6.4 kmh 29.84 in1010.5 mb 0.00 in0.0 mm 0.00 in0.0 mm 0.00 in0.0 mm
03:50 AM 91.2°F32.9°C 42.0°F5.6°C 18% 0.3 mph SW0.5 kmh SW 2.0 mph3.2 kmh 29.84 in1010.5 mb 0.00 in0.0 mm 0.00 in0.0 mm 0.00 in0.0 mm
04:00 AM 90.4°F32.4°C 43.0°F6.1°C 19% Calm Calm 1.0 mph1.6 kmh 29.84 in1010.5 mb 0.00 in0.0 mm 0.00 in0.0 mm 0.00 in0.0 mm
04:10 AM 90.4°F32.4°C 43.0°F6.1°C 19% 0.2 mph SW0.3 kmh SW 1.0 mph1.6 kmh 29.84 in1010.5 mb 0.00 in0.0 mm 0.00 in0.0 mm 0.00 in0.0 mm
04:20 AM 89.7°F32.1°C 44.0°F6.7°C 20% Calm Calm 1.0 mph1.6 kmh 29.84 in1010.5 mb 0.00 in0.0 mm 0.00 in0.0 mm 0.00 in0.0 mm
04:30 AM 89.5°F31.9°C 43.0°F6.1°C 20% 0.1 mph NE0.2 kmh NE 2.0 mph3.2 kmh 29.84 in1010.5 mb 0.00 in0.0 mm 0.00 in0.0 mm 0.00 in0.0 mm
04:40 AM 89.7°F32.1°C 44.0°F6.7°C 20% Calm Calm 1.0 mph1.6 kmh 29.84 in1010.5 mb 0.00 in0.0 mm 0.00 in0.0 mm 0.00 in0.0 mm
04:50 AM 89.7°F32.1°C 44.0°F6.7°C 20% Calm Calm 1.0 mph1.6 kmh 29.84 in1010.5 mb 0.00 in0.0 mm 0.00 in0.0 mm 0.00 in0.0 mm
05:00 AM 89.7°F32.1°C 44.0°F6.7°C 20% 0.1 mph ESE0.2 kmh ESE 2.0 mph3.2 kmh 29.84 in1010.5 mb 0.00 in0.0 mm 0.00 in0.0 mm 0.00 in0.0 mm
05:10 AM 89.5°F31.9°C 43.0°F6.1°C 20% Calm Calm 1.0 mph1.6 kmh 29.84 in1010.5 mb 0.00 in0.0 mm 0.00 in0.0 mm 0.00 in0.0 mm
05:20 AM 89.0°F31.7°C 44.0°F6.7°C 21% Calm Calm -- 29.84 in1010.5 mb 0.00 in0.0 mm 0.00 in0.0 mm 0.00 in0.0 mm
05:30 AM 88.9°F31.6°C 44.0°F6.7°C 21% Calm Calm -- 29.84 in1010.5 mb 0.00 in0.0 mm 0.00 in0.0 mm 0.00 in0.0 mm
05:40 AM 88.6°F31.4°C 44.0°F6.7°C 21% Calm Calm 1.0 mph1.6 kmh 29.84 in1010.5 mb 0.00 in0.0 mm 0.00 in0.0 mm 0.00 in0.0 mm
05:50 AM 88.5°F31.4°C 44.0°F6.7°C 21% Calm Calm -- 29.84 in1010.5 mb 0.00 in0.0 mm 0.00 in0.0 mm 0.00 in0.0 mm
06:00 AM 89.0°F31.7°C 45.0°F7.2°C 22% Calm Calm 1.0 mph1.6 kmh 29.84 in1010.5 mb 0.00 in0.0 mm 0.00 in0.0 mm 0.00 in0.0 mm
06:10 AM 88.6°F31.4°C 45.0°F7.2°C 22% 0.4 mph N0.6 kmh N 2.0 mph3.2 kmh 29.84 in1010.5 mb 0.00 in0.0 mm 0.00 in0.0 mm 0.00 in0.0 mm
06:20 AM 89.0°F31.7°C 43.0°F6.1°C 20% 1.8 mph N2.9 kmh N 3.0 mph4.8 kmh 29.84 in1010.5 mb 0.00 in0.0 mm 0.00 in0.0 mm 0.00 in0.0 mm
06:30 AM 89.3°F31.8°C 43.0°F6.1°C 20% 1.4 mph N2.3 kmh N 2.0 mph3.2 kmh 29.84 in1010.5 mb 0.00 in0.0 mm 0.00 in0.0 mm 0.00 in0.0 mm
06:40 AM 89.8°F32.1°C 44.0°F6.7°C 20% 1.2 mph N1.9 kmh N 2.0 mph3.2 kmh 29.84 in1010.5 mb 0.00 in0.0 mm 0.00 in0.0 mm 0.00 in0.0 mm
06:50 AM 90.4°F32.4°C 44.0°F6.7°C 20% 0.1 mph N0.2 kmh N 2.0 mph3.2 kmh 29.84 in1010.5 mb 0.00 in0.0 mm 0.00 in0.0 mm 0.00 in0.0 mm
07:00 AM 90.4°F32.4°C 45.0°F7.2°C 21% 0.1 mph N0.2 kmh N 3.0 mph4.8 kmh 29.84 in1010.5 mb 0.00 in0.0 mm 0.00 in0.0 mm 0.00 in0.0 mm
07:10 AM 91.0°F32.8°C 45.0°F7.2°C 20% 1.5 mph NE2.4 kmh NE 3.0 mph4.8 kmh 29.84 in1010.5 mb 0.00 in0.0 mm 0.00 in0.0 mm 0.00 in0.0 mm
07:20 AM 91.7°F33.2°C 44.0°F6.7°C 19% 1.7 mph N2.7 kmh N 4.0 mph6.4 kmh 29.84 in1010.5 mb 0.00 in0.0 mm 0.00 in0.0 mm 0.00 in0.0 mm
07:30 AM 92.8°F33.8°C 43.0°F6.1°C 18% 2.7 mph N4.3 kmh N 6.0 mph9.7 kmh 29.84 in1010.5 mb 0.00 in0.0 mm 0.00 in0.0 mm 0.00 in0.0 mm
07:40 AM 93.4°F34.1°C 44.0°F6.7°C 18% 4.3 mph NE6.9 kmh NE 7.0 mph11.3 kmh 29.84 in1010.5 mb 0.00 in0.0 mm 0.00 in0.0 mm 0.00 in0.0 mm
07:50 AM 93.7°F34.3°C 44.0°F6.7°C 18% 4.5 mph NE7.2 kmh NE 7.0 mph11.3 kmh 29.84 in1010.5 mb 0.00 in0.0 mm 0.00 in0.0 mm 0.00 in0.0 mm
08:00 AM 93.8°F34.3°C 44.0°F6.7°C 18% 2.9 mph NNW4.7 kmh NNW 5.0 mph8.0 kmh 29.84 in1010.5 mb 0.00 in0.0 mm 0.00 in0.0 mm 0.00 in0.0 mm
08:10 AM 93.7°F34.3°C 44.0°F6.7°C 18% 2.1 mph N3.4 kmh N 4.0 mph6.4 kmh 29.84 in1010.5 mb 0.00 in0.0 mm 0.00 in0.0 mm 0.00 in0.0 mm
08:20 AM 93.6°F34.2°C 44.0°F6.7°C 18% 2.1 mph E3.4 kmh E 7.0 mph11.3 kmh 29.84 in1010.5 mb 0.00 in0.0 mm 0.00 in0.0 mm 0.00 in0.0 mm
08:30 AM 93.7°F34.3°C 44.0°F6.7°C 18% 1.5 mph N2.4 kmh N 3.0 mph4.8 kmh 29.84 in1010.5 mb 0.00 in0.0 mm 0.00 in0.0 mm 0.00 in0.0 mm
08:40 AM 93.8°F34.3°C 44.0°F6.7°C 18% 3.0 mph N4.8 kmh N 6.0 mph9.7 kmh 29.84 in1010.5 mb 0.00 in0.0 mm 0.00 in0.0 mm 0.00 in0.0 mm
08:50 AM 93.6°F34.2°C 46.0°F7.8°C 19% 0.6 mph NNE1.0 kmh NNE 2.0 mph3.2 kmh 29.84 in1010.5 mb 0.00 in0.0 mm 0.00 in0.0 mm 0.00 in0.0 mm
09:00 AM 93.5°F34.2°C 45.0°F7.2°C 19% Calm Calm 2.0 mph3.2 kmh 29.84 in1010.5 mb 0.00 in0.0 mm 0.00 in0.0 mm 0.00 in0.0 mm
09:10 AM 93.6°F34.2°C 47.0°F8.3°C 20% 0.3 mph N0.5 kmh N 1.0 mph1.6 kmh 29.84 in1010.5 mb 0.00 in0.0 mm 0.00 in0.0 mm 0.00 in0.0 mm
09:20 AM 94.1°F34.5°C 46.0°F7.8°C 19% 0.2 mph N0.3 kmh N 1.0 mph1.6 kmh 29.84 in1010.5 mb 0.00 in0.0 mm 0.00 in0.0 mm 0.00 in0.0 mm
09:30 AM 95.0°F35.0°C 47.0°F8.3°C 19% 0.1 mph NW0.2 kmh NW 2.0 mph3.2 kmh 29.84 in1010.5 mb 0.00 in0.0 mm 0.00 in0.0 mm 0.00 in0.0 mm
09:40 AM 95.7°F35.4°C 46.0°F7.8°C 18% 0.4 mph N0.6 kmh N 3.0 mph4.8 kmh 29.84 in1010.5 mb 0.00 in0.0 mm 0.00 in0.0 mm 0.00 in0.0 mm
09:54 AM -- -- - - N N -- 29.84 in1010.5 mb 0.00 in0.0 mm 0.00 in0.0 mm 0.00 in0.0 mm
10:00 AM -- -- - - N N -- 29.84 in1010.5 mb 0.00 in0.0 mm 0.00 in0.0 mm 0.00 in0.0 mm
10:10 AM 97.3°F36.3°C 47.0°F8.3°C 18% 0.2 mph N0.3 kmh N 1.0 mph1.6 kmh 29.84 in1010.5 mb 0.00 in0.0 mm 0.00 in0.0 mm 0.00 in0.0 mm
10:20 AM 98.1°F36.7°C 51.0°F10.6°C 20% Calm Calm 1.0 mph1.6 kmh 29.84 in1010.5 mb 0.00 in0.0 mm 0.00 in0.0 mm 0.00 in0.0 mm
10:30 AM 99.9°F37.7°C 49.0°F9.4°C 18% 0.4 mph N0.6 kmh N 2.0 mph3.2 kmh 29.84 in1010.5 mb 0.00 in0.0 mm 0.00 in0.0 mm 0.00 in0.0 mm
10:40 AM 101.7°F38.7°C 51.0°F10.6°C 18% 0.5 mph SE0.8 kmh SE 3.0 mph4.8 kmh 29.84 in1010.5 mb 0.00 in0.0 mm 0.00 in0.0 mm 0.00 in0.0 mm
10:50 AM 101.8°F38.8°C 52.0°F11.1°C 19% 1.3 mph ESE2.1 kmh ESE 5.0 mph8.0 kmh 29.84 in1010.5 mb 0.00 in0.0 mm 0.00 in0.0 mm 0.00 in0.0 mm
11:00 AM 102.7°F39.3°C 50.0°F10.0°C 17% 1.4 mph NW2.3 kmh NW 7.0 mph11.3 kmh 29.84 in1010.5 mb 0.00 in0.0 mm 0.00 in0.0 mm 0.00 in0.0 mm
11:10 AM 103.5°F39.7°C 51.0°F10.6°C 17% 0.9 mph SW1.4 kmh SW 6.0 mph9.7 kmh 29.84 in1010.5 mb 0.00 in0.0 mm 0.00 in0.0 mm 0.00 in0.0 mm
11:20 AM 103.3°F39.6°C 49.0°F9.4°C 16% 0.9 mph NNW1.4 kmh NNW 3.0 mph4.8 kmh 29.84 in1010.5 mb 0.00 in0.0 mm 0.00 in0.0 mm 0.00 in0.0 mm
11:30 AM 103.7°F39.8°C 49.0°F9.4°C 16% 1.4 mph SSW2.3 kmh SSW 5.0 mph8.0 kmh 29.84 in1010.5 mb 0.00 in0.0 mm 0.00 in0.0 mm 0.00 in0.0 mm
11:40 AM 104.2°F40.1°C 50.0°F10.0°C 16% 0.9 mph SW1.4 kmh SW 6.0 mph9.7 kmh 29.84 in1010.5 mb 0.00 in0.0 mm 0.00 in0.0 mm 0.00 in0.0 mm
11:50 AM 104.7°F40.4°C 48.0°F8.9°C 15% 1.4 mph SSW2.3 kmh SSW 6.0 mph9.7 kmh 29.84 in1010.5 mb 0.00 in0.0 mm 0.00 in0.0 mm 0.00 in0.0 mm
12:00 PM 105.4°F40.8°C 49.0°F9.4°C 15% 2.3 mph SW3.7 kmh SW 8.0 mph12.9 kmh 29.84 in1010.5 mb 0.00 in0.0 mm 0.00 in0.0 mm 0.00 in0.0 mm
12:10 PM 106.1°F41.2°C 50.0°F10.0°C 15% 1.3 mph SSW2.1 kmh SSW 6.0 mph9.7 kmh 29.84 in1010.5 mb 0.00 in0.0 mm 0.00 in0.0 mm 0.00 in0.0 mm
12:20 PM 106.1°F41.2°C 48.0°F8.9°C 14% 2.3 mph S3.7 kmh S 7.0 mph11.3 kmh 29.84 in1010.5 mb 0.00 in0.0 mm 0.00 in0.0 mm 0.00 in0.0 mm
12:30 PM 107.1°F41.7°C 49.0°F9.4°C 14% 1.3 mph N2.1 kmh N 5.0 mph8.0 kmh 29.84 in1010.5 mb 0.00 in0.0 mm 0.00 in0.0 mm 0.00 in0.0 mm
12:40 PM 107.3°F41.8°C 49.0°F9.4°C 14% 1.6 mph S2.6 kmh S 6.0 mph9.7 kmh 29.84 in1010.5 mb 0.00 in0.0 mm 0.00 in0.0 mm 0.00 in0.0 mm
12:50 PM 107.4°F41.9°C 47.0°F8.3°C 13% 2.6 mph SW4.2 kmh SW 6.0 mph9.7 kmh 29.84 in1010.5 mb 0.00 in0.0 mm 0.00 in0.0 mm 0.00 in0.0 mm
01:00 PM 107.2°F41.8°C 47.0°F8.3°C 13% 3.4 mph SW5.5 kmh SW 8.0 mph12.9 kmh 29.84 in1010.5 mb 0.00 in0.0 mm 0.00 in0.0 mm 0.00 in0.0 mm
01:10 PM 105.9°F41.1°C 48.0°F8.9°C 14% 3.1 mph SE5.0 kmh SE 8.0 mph12.9 kmh 29.84 in1010.5 mb 0.00 in0.0 mm 0.00 in0.0 mm 0.00 in0.0 mm
01:20 PM 106.4°F41.3°C 48.0°F8.9°C 14% 1.1 mph WSW1.8 kmh WSW 4.0 mph6.4 kmh 29.84 in1010.5 mb 0.00 in0.0 mm 0.00 in0.0 mm 0.00 in0.0 mm
01:30 PM 106.7°F41.5°C 46.0°F7.8°C 13% 1.5 mph SW2.4 kmh SW 7.0 mph11.3 kmh 29.84 in1010.5 mb 0.00 in0.0 mm 0.00 in0.0 mm 0.00 in0.0 mm
01:40 PM 105.3°F40.7°C 47.0°F8.3°C 14% 4.0 mph SW6.4 kmh SW 7.0 mph11.3 kmh 29.84 in1010.5 mb 0.00 in0.0 mm 0.00 in0.0 mm 0.00 in0.0 mm
01:50 PM 105.7°F40.9°C 47.0°F8.3°C 14% 3.2 mph SW5.1 kmh SW 6.0 mph9.7 kmh 29.84 in1010.5 mb 0.00 in0.0 mm 0.00 in0.0 mm 0.00 in0.0 mm
02:00 PM 106.8°F41.6°C 46.0°F7.8°C 13% 0.7 mph S1.1 kmh S 5.0 mph8.0 kmh 29.84 in1010.5 mb 0.00 in0.0 mm 0.00 in0.0 mm 0.00 in0.0 mm
02:10 PM 108.0°F42.2°C 47.0°F8.3°C 13% 0.3 mph NE0.5 kmh NE 3.0 mph4.8 kmh 29.84 in1010.5 mb 0.00 in0.0 mm 0.00 in0.0 mm 0.00 in0.0 mm
02:20 PM 108.5°F42.5°C 46.0°F7.8°C 12% 1.9 mph N3.1 kmh N 7.0 mph11.3 kmh 29.84 in1010.5 mb 0.00 in0.0 mm 0.00 in0.0 mm 0.00 in0.0 mm
02:30 PM 107.4°F41.9°C 47.0°F8.3°C 13% 1.1 mph SE1.8 kmh SE 4.0 mph6.4 kmh 29.84 in1010.5 mb 0.00 in0.0 mm 0.00 in0.0 mm 0.00 in0.0 mm
02:40 PM 108.0°F42.2°C 47.0°F8.3°C 13% 1.0 mph N1.6 kmh N 3.0 mph4.8 kmh 29.84 in1010.5 mb 0.00 in0.0 mm 0.00 in0.0 mm 0.00 in0.0 mm
02:50 PM 106.9°F41.6°C 46.0°F7.8°C 13% 0.2 mph NE0.3 kmh NE 4.0 mph6.4 kmh 29.84 in1010.5 mb 0.00 in0.0 mm 0.00 in0.0 mm 0.00 in0.0 mm
03:00 PM 107.9°F42.2°C 47.0°F8.3°C 13% 0.6 mph NE1.0 kmh NE 4.0 mph6.4 kmh 29.84 in1010.5 mb 0.00 in0.0 mm 0.00 in0.0 mm 0.00 in0.0 mm
03:10 PM 109.4°F43.0°C 46.0°F7.8°C 12% 1.5 mph WSW2.4 kmh WSW 7.0 mph11.3 kmh 29.84 in1010.5 mb 0.00 in0.0 mm 0.00 in0.0 mm 0.00 in0.0 mm
03:20 PM 109.3°F42.9°C 46.0°F7.8°C 12% 4.3 mph SW6.9 kmh SW 9.0 mph14.5 kmh 29.84 in1010.5 mb 0.00 in0.0 mm 0.00 in0.0 mm 0.00 in0.0 mm
03:30 PM 107.8°F42.1°C 45.0°F7.2°C 12% 3.9 mph SW6.3 kmh SW 10.0 mph16.1 kmh 29.84 in1010.5 mb 0.00 in0.0 mm 0.00 in0.0 mm 0.00 in0.0 mm
03:40 PM 108.6°F42.6°C 46.0°F7.8°C 12% 2.4 mph NW3.9 kmh NW 10.0 mph16.1 kmh 29.84 in1010.5 mb 0.00 in0.0 mm 0.00 in0.0 mm 0.00 in0.0 mm
03:50 PM 107.9°F42.2°C 45.0°F7.2°C 12% 3.5 mph S5.6 kmh S 10.0 mph16.1 kmh 29.84 in1010.5 mb 0.00 in0.0 mm 0.00 in0.0 mm 0.00 in0.0 mm
04:00 PM 107.8°F42.1°C 45.0°F7.2°C 12% 3.9 mph SSE6.3 kmh SSE 9.0 mph14.5 kmh 29.84 in1010.5 mb 0.00 in0.0 mm 0.00 in0.0 mm 0.00 in0.0 mm
04:10 PM 108.8°F42.7°C 46.0°F7.8°C 12% 2.6 mph SW4.2 kmh SW 7.0 mph11.3 kmh 29.84 in1010.5 mb 0.00 in0.0 mm 0.00 in0.0 mm 0.00 in0.0 mm
04:20 PM 108.5°F42.5°C 43.0°F6.1°C 11% 4.1 mph SSW6.6 kmh SSW 9.0 mph14.5 kmh 29.84 in1010.5 mb 0.00 in0.0 mm 0.00 in0.0 mm 0.00 in0.0 mm
04:30 PM 107.9°F42.2°C 45.0°F7.2°C 12% 1.9 mph SE3.1 kmh SE 8.0 mph12.9 kmh 29.84 in1010.5 mb 0.00 in0.0 mm 0.00 in0.0 mm 0.00 in0.0 mm
04:40 PM 107.4°F41.9°C 45.0°F7.2°C 12% 1.8 mph S2.9 kmh S 8.0 mph12.9 kmh 29.84 in1010.5 mb 0.00 in0.0 mm 0.00 in0.0 mm 0.00 in0.0 mm
04:50 PM 106.6°F41.4°C 44.0°F6.7°C 12% 3.0 mph S4.8 kmh S 10.0 mph16.1 kmh 29.84 in1010.5 mb 0.00 in0.0 mm 0.00 in0.0 mm 0.00 in0.0 mm
05:00 PM 105.9°F41.1°C 44.0°F6.7°C 12% 2.6 mph S4.2 kmh S 6.0 mph9.7 kmh 29.84 in1010.5 mb 0.00 in0.0 mm 0.00 in0.0 mm 0.00 in0.0 mm
05:10 PM 105.4°F40.8°C 43.0°F6.1°C 12% 2.9 mph SSW4.7 kmh SSW 6.0 mph9.7 kmh 29.84 in1010.5 mb 0.00 in0.0 mm 0.00 in0.0 mm 0.00 in0.0 mm
05:20 PM 105.1°F40.6°C 45.0°F7.2°C 13% 0.9 mph WSW1.4 kmh WSW 4.0 mph6.4 kmh 29.84 in1010.5 mb 0.00 in0.0 mm 0.00 in0.0 mm 0.00 in0.0 mm
05:30 PM 104.8°F40.4°C 43.0°F6.1°C 12% 5.4 mph SW8.7 kmh SW 11.0 mph17.7 kmh 29.84 in1010.5 mb 0.00 in0.0 mm 0.00 in0.0 mm 0.00 in0.0 mm
05:40 PM 104.1°F40.1°C 42.0°F5.6°C 12% 2.7 mph SW4.3 kmh SW 10.0 mph16.1 kmh 29.84 in1010.5 mb 0.00 in0.0 mm 0.00 in0.0 mm 0.00 in0.0 mm
05:50 PM 103.4°F39.7°C 44.0°F6.7°C 13% 2.4 mph SW3.9 kmh SW 12.0 mph19.3 kmh 29.84 in1010.5 mb 0.00 in0.0 mm 0.00 in0.0 mm 0.00 in0.0 mm
06:00 PM 102.8°F39.3°C 45.0°F7.2°C 14% 2.6 mph NE4.2 kmh NE 8.0 mph12.9 kmh 29.84 in1010.5 mb 0.00 in0.0 mm 0.00 in0.0 mm 0.00 in0.0 mm
06:10 PM 102.5°F39.2°C 45.0°F7.2°C 14% 1.7 mph N2.7 kmh N 8.0 mph12.9 kmh 29.84 in1010.5 mb 0.00 in0.0 mm 0.00 in0.0 mm 0.00 in0.0 mm
06:20 PM 99.2°F37.3°C 52.0°F11.1°C 20% 6.4 mph NE10.3 kmh NE 13.0 mph20.9 kmh 29.84 in1010.5 mb 0.00 in0.0 mm 0.00 in0.0 mm 0.00 in0.0 mm
06:30 PM 98.0°F36.7°C 52.0°F11.1°C 21% 9.5 mph NE15.3 kmh NE 15.0 mph24.1 kmh 29.84 in1010.5 mb 0.00 in0.0 mm 0.00 in0.0 mm 0.00 in0.0 mm
06:40 PM 97.6°F36.4°C 52.0°F11.1°C 21% 7.6 mph NE12.2 kmh NE 15.0 mph24.1 kmh 29.84 in1010.5 mb 0.00 in0.0 mm 0.00 in0.0 mm 0.00 in0.0 mm
06:50 PM 97.4°F36.3°C 53.0°F11.7°C 22% 7.6 mph NE12.2 kmh NE 14.0 mph22.5 kmh 29.84 in1010.5 mb 0.00 in0.0 mm 0.00 in0.0 mm 0.00 in0.0 mm
07:00 PM 96.4°F35.8°C 53.0°F11.7°C 23% 11.6 mph NNE18.7 kmh NNE 23.0 mph37.0 kmh 29.84 in1010.5 mb 0.00 in0.0 mm 0.00 in0.0 mm 0.00 in0.0 mm
07:10 PM 95.6°F35.3°C 53.0°F11.7°C 24% 11.0 mph NE17.7 kmh NE 22.0 mph35.4 kmh 29.84 in1010.5 mb 0.00 in0.0 mm 0.00 in0.0 mm 0.00 in0.0 mm
07:20 PM 95.1°F35.1°C 54.0°F12.2°C 25% 11.4 mph NW18.3 kmh NW 19.0 mph30.6 kmh 29.84 in1010.5 mb 0.00 in0.0 mm 0.00 in0.0 mm 0.00 in0.0 mm
07:30 PM 94.8°F34.9°C 54.0°F12.2°C 25% 8.1 mph NNE13.0 kmh NNE 15.0 mph24.1 kmh 29.84 in1010.5 mb 0.00 in0.0 mm 0.00 in0.0 mm 0.00 in0.0 mm
07:40 PM 94.7°F34.8°C 53.0°F11.7°C 24% 10.8 mph NE17.4 kmh NE 20.0 mph32.2 kmh 29.84 in1010.5 mb 0.00 in0.0 mm 0.00 in0.0 mm 0.00 in0.0 mm
07:50 PM 94.8°F34.9°C 53.0°F11.7°C 24% 11.4 mph N18.3 kmh N 20.0 mph32.2 kmh 29.84 in1010.5 mb 0.00 in0.0 mm 0.00 in0.0 mm 0.00 in0.0 mm
08:00 PM 94.8°F34.9°C 53.0°F11.7°C 24% 10.1 mph NNE16.3 kmh NNE 20.0 mph32.2 kmh 29.84 in1010.5 mb 0.00 in0.0 mm 0.00 in0.0 mm 0.00 in0.0 mm
08:10 PM 94.8°F34.9°C 53.0°F11.7°C 24% 9.4 mph N15.1 kmh N 19.0 mph30.6 kmh 29.84 in1010.5 mb 0.00 in0.0 mm 0.00 in0.0 mm 0.00 in0.0 mm
08:20 PM 95.0°F35.0°C 52.0°F11.1°C 23% 10.4 mph NNE16.7 kmh NNE 19.0 mph30.6 kmh 29.84 in1010.5 mb 0.00 in0.0 mm 0.00 in0.0 mm 0.00 in0.0 mm
08:30 PM 95.2°F35.1°C 51.0°F10.6°C 22% 6.6 mph ENE10.6 kmh ENE 15.0 mph24.1 kmh 29.84 in1010.5 mb 0.00 in0.0 mm 0.00 in0.0 mm 0.00 in0.0 mm
08:40 PM 95.5°F35.3°C 51.0°F10.6°C 22% 7.9 mph NNW12.7 kmh NNW 15.0 mph24.1 kmh 29.84 in1010.5 mb 0.00 in0.0 mm 0.00 in0.0 mm 0.00 in0.0 mm
08:50 PM 95.6°F35.3°C 51.0°F10.6°C 22% 9.7 mph N15.6 kmh N 17.0 mph27.4 kmh 29.84 in1010.5 mb 0.00 in0.0 mm 0.00 in0.0 mm 0.00 in0.0 mm
09:00 PM 96.0°F35.6°C 50.0°F10.0°C 21% 9.4 mph NNE15.1 kmh NNE 22.0 mph35.4 kmh 29.84 in1010.5 mb 0.00 in0.0 mm 0.00 in0.0 mm 0.00 in0.0 mm
09:10 PM 96.3°F35.7°C 49.0°F9.4°C 20% 9.5 mph N15.3 kmh N 22.0 mph35.4 kmh 29.84 in1010.5 mb 0.00 in0.0 mm 0.00 in0.0 mm 0.00 in0.0 mm
09:20 PM 96.4°F35.8°C 49.0°F9.4°C 20% 8.5 mph NE13.7 kmh NE 13.0 mph20.9 kmh 29.84 in1010.5 mb 0.00 in0.0 mm 0.00 in0.0 mm 0.00 in0.0 mm
09:30 PM 96.5°F35.8°C 49.0°F9.4°C 20% 8.7 mph NNW14.0 kmh NNW 18.0 mph29.0 kmh 29.84 in1010.5 mb 0.00 in0.0 mm 0.00 in0.0 mm 0.00 in0.0 mm
09:40 PM 96.6°F35.9°C 49.0°F9.4°C 20% 8.5 mph N13.7 kmh N 16.0 mph25.7 kmh 29.84 in1010.5 mb 0.00 in0.0 mm 0.00 in0.0 mm 0.00 in0.0 mm
09:50 PM 96.8°F36.0°C 48.0°F8.9°C 19% 8.1 mph N13.0 kmh N 15.0 mph24.1 kmh 29.84 in1010.5 mb 0.00 in0.0 mm 0.00 in0.0 mm 0.00 in0.0 mm
10:00 PM 96.9°F36.1°C 48.0°F8.9°C 19% 8.3 mph N13.4 kmh N 16.0 mph25.7 kmh 29.84 in1010.5 mb 0.00 in0.0 mm 0.00 in0.0 mm 0.00 in0.0 mm
10:10 PM 96.9°F36.1°C 48.0°F8.9°C 19% 7.3 mph NW11.7 kmh NW 14.0 mph22.5 kmh 29.84 in1010.5 mb 0.00 in0.0 mm 0.00 in0.0 mm 0.00 in0.0 mm
10:20 PM 96.8°F36.0°C 48.0°F8.9°C 19% 7.6 mph N12.2 kmh N 13.0 mph20.9 kmh 29.84 in1010.5 mb 0.00 in0.0 mm 0.00 in0.0 mm 0.00 in0.0 mm
10:30 PM 96.9°F36.1°C 48.0°F8.9°C 19% 7.9 mph N12.7 kmh N 13.0 mph20.9 kmh 29.84 in1010.5 mb 0.00 in0.0 mm 0.00 in0.0 mm 0.00 in0.0 mm
10:40 PM 97.0°F36.1°C 48.0°F8.9°C 19% 7.4 mph NNE11.9 kmh NNE 11.0 mph17.7 kmh 29.84 in1010.5 mb 0.00 in0.0 mm 0.00 in0.0 mm 0.00 in0.0 mm
10:50 PM 97.4°F36.3°C 47.0°F8.3°C 18% 6.9 mph NE11.1 kmh NE 14.0 mph22.5 kmh 29.84 in1010.5 mb 0.00 in0.0 mm 0.00 in0.0 mm 0.00 in0.0 mm
11:00 PM 97.1°F36.2°C 48.0°F8.9°C 19% 4.9 mph NNE7.9 kmh NNE 9.0 mph14.5 kmh 29.84 in1010.5 mb 0.00 in0.0 mm 0.00 in0.0 mm 0.00 in0.0 mm
11:10 PM 96.8°F36.0°C 48.0°F8.9°C 19% 2.2 mph SE3.5 kmh SE 7.0 mph11.3 kmh 29.84 in1010.5 mb 0.00 in0.0 mm 0.00 in0.0 mm 0.00 in0.0 mm
11:20 PM 95.7°F35.4°C 52.0°F11.1°C 23% 1.5 mph E2.4 kmh E 8.0 mph12.9 kmh 29.84 in1010.5 mb 0.00 in0.0 mm 0.00 in0.0 mm 0.00 in0.0 mm
11:30 PM 95.0°F35.0°C 51.0°F10.6°C 22% 3.6 mph NNE5.8 kmh NNE 12.0 mph19.3 kmh 29.84 in1010.5 mb 0.00 in0.0 mm 0.00 in0.0 mm 0.00 in0.0 mm
11:40 PM 96.1°F35.6°C 50.0°F10.0°C 21% 4.5 mph NE7.2 kmh NE 15.0 mph24.1 kmh 29.84 in1010.5 mb 0.00 in0.0 mm 0.00 in0.0 mm 0.00 in0.0 mm
11:50 PM 94.8°F34.9°C 50.0°F10.0°C 22% 4.5 mph N7.2 kmh N 11.0 mph17.7 kmh 29.84 in1010.5 mb 0.00 in0.0 mm 0.00 in0.0 mm 0.00 in0.0 mm